sensor_id;sensor_type;location;lat;lon;timestamp;P1;durP1;ratioP1;P2;durP2;ratioP2
10582;SDS011;33679;51.218;6.786;2022-11-21T00:01:40;17.07;;;9.67;;
10582;SDS011;33679;51.218;6.786;2022-11-21T00:04:07;16.03;;;9.10;;
10582;SDS011;33679;51.218;6.786;2022-11-21T00:06:36;17.33;;;9.97;;
10582;SDS011;33679;51.218;6.786;2022-11-21T00:09:03;14.63;;;8.33;;
10582;SDS011;33679;51.218;6.786;2022-11-21T00:11:30;12.13;;;7.57;;
10582;SDS011;33679;51.218;6.786;2022-11-21T00:14:01;10.23;;;6.57;;
10582;SDS011;33679;51.218;6.786;2022-11-21T00:16:32;11.53;;;7.33;;
10582;SDS011;33679;51.218;6.786;2022-11-21T00:18:59;13.43;;;8.00;;
10582;SDS011;33679;51.218;6.786;2022-11-21T00:21:26;16.33;;;7.90;;
10582;SDS011;33679;51.218;6.786;2022-11-21T00:23:54;8.90;;;6.23;;
10582;SDS011;33679;51.218;6.786;2022-11-21T00:26:21;14.07;;;8.27;;
10582;SDS011;33679;51.218;6.786;2022-11-21T00:28:48;10.33;;;6.97;;
10582;SDS011;33679;51.218;6.786;2022-11-21T00:31:21;10.67;;;6.43;;
10582;SDS011;33679;51.218;6.786;2022-11-21T00:33:49;12.50;;;7.43;;
10582;SDS011;33679;51.218;6.786;2022-11-21T00:36:16;13.93;;;7.57;;
10582;SDS011;33679;51.218;6.786;2022-11-21T00:38:44;11.00;;;6.80;;
10582;SDS011;33679;51.218;6.786;2022-11-21T00:41:11;14.13;;;7.13;;
10582;SDS011;33679;51.218;6.786;2022-11-21T00:43:39;10.60;;;6.87;;
10582;SDS011;33679;51.218;6.786;2022-11-21T00:46:07;11.00;;;6.63;;
10582;SDS011;33679;51.218;6.786;2022-11-21T00:48:37;12.53;;;7.23;;
10582;SDS011;33679;51.218;6.786;2022-11-21T00:51:07;14.07;;;8.40;;
10582;SDS011;33679;51.218;6.786;2022-11-21T00:53:34;16.47;;;8.93;;
10582;SDS011;33679;51.218;6.786;2022-11-21T00:56:01;16.43;;;8.90;;
10582;SDS011;33679;51.218;6.786;2022-11-21T00:58:28;16.83;;;9.40;;
10582;SDS011;33679;51.218;6.786;2022-11-21T01:01:02;15.40;;;9.20;;
10582;SDS011;33679;51.218;6.786;2022-11-21T01:03:32;17.00;;;9.40;;
10582;SDS011;33679;51.218;6.786;2022-11-21T01:06:01;20.10;;;10.20;;
10582;SDS011;33679;51.218;6.786;2022-11-21T01:08:32;26.53;;;12.37;;
10582;SDS011;33679;51.218;6.786;2022-11-21T01:11:01;20.03;;;10.10;;
10582;SDS011;33679;51.218;6.786;2022-11-21T01:13:29;22.00;;;10.90;;
10582;SDS011;33679;51.218;6.786;2022-11-21T01:16:01;19.97;;;10.87;;
10582;SDS011;33679;51.218;6.786;2022-11-21T01:18:29;23.43;;;12.43;;
10582;SDS011;33679;51.218;6.786;2022-11-21T01:20:58;23.90;;;12.90;;
10582;SDS011;33679;51.218;6.786;2022-11-21T01:23:27;23.97;;;12.60;;
10582;SDS011;33679;51.218;6.786;2022-11-21T01:25:54;26.40;;;11.57;;
10582;SDS011;33679;51.218;6.786;2022-11-21T01:28:27;29.97;;;14.87;;
10582;SDS011;33679;51.218;6.786;2022-11-21T01:30:54;29.80;;;13.70;;
10582;SDS011;33679;51.218;6.786;2022-11-21T01:33:21;31.07;;;13.03;;
10582;SDS011;33679;51.218;6.786;2022-11-21T01:36:11;26.13;;;12.67;;
10582;SDS011;33679;51.218;6.786;2022-11-21T01:38:45;26.90;;;13.60;;
10582;SDS011;33679;51.218;6.786;2022-11-21T01:41:14;24.37;;;12.97;;
10582;SDS011;33679;51.218;6.786;2022-11-21T01:43:43;26.27;;;13.23;;
10582;SDS011;33679;51.218;6.786;2022-11-21T01:46:12;25.50;;;13.57;;
10582;SDS011;33679;51.218;6.786;2022-11-21T01:48:43;28.77;;;13.90;;
10582;SDS011;33679;51.218;6.786;2022-11-21T01:51:17;32.10;;;14.20;;
10582;SDS011;33679;51.218;6.786;2022-11-21T01:53:50;29.60;;;14.10;;
10582;SDS011;33679;51.218;6.786;2022-11-21T01:56:21;31.87;;;13.60;;
10582;SDS011;33679;51.218;6.786;2022-11-21T01:58:50;24.87;;;12.13;;
10582;SDS011;33679;51.218;6.786;2022-11-21T02:01:22;27.80;;;13.83;;
10582;SDS011;33679;51.218;6.786;2022-11-21T02:03:50;28.57;;;13.70;;
10582;SDS011;33679;51.218;6.786;2022-11-21T02:06:18;23.60;;;13.53;;
10582;SDS011;33679;51.218;6.786;2022-11-21T02:08:50;28.53;;;13.40;;
10582;SDS011;33679;51.218;6.786;2022-11-21T02:11:20;26.63;;;13.20;;
10582;SDS011;33679;51.218;6.786;2022-11-21T02:13:54;34.10;;;13.50;;
10582;SDS011;33679;51.218;6.786;2022-11-21T02:16:21;32.40;;;14.30;;
10582;SDS011;33679;51.218;6.786;2022-11-21T02:18:51;31.00;;;14.73;;
10582;SDS011;33679;51.218;6.786;2022-11-21T02:21:19;28.00;;;13.97;;
10582;SDS011;33679;51.218;6.786;2022-11-21T02:23:59;28.57;;;12.90;;
10582;SDS011;33679;51.218;6.786;2022-11-21T02:26:30;28.10;;;14.10;;
10582;SDS011;33679;51.218;6.786;2022-11-21T02:28:59;29.57;;;14.37;;
10582;SDS011;33679;51.218;6.786;2022-11-21T02:31:27;29.83;;;12.20;;
10582;SDS011;33679;51.218;6.786;2022-11-21T02:33:54;27.47;;;13.13;;
10582;SDS011;33679;51.218;6.786;2022-11-21T02:36:38;30.80;;;15.73;;
10582;SDS011;33679;51.218;6.786;2022-11-21T02:39:09;22.67;;;12.50;;
10582;SDS011;33679;51.218;6.786;2022-11-21T02:41:45;32.00;;;14.43;;
10582;SDS011;33679;51.218;6.786;2022-11-21T02:44:21;23.70;;;13.20;;
10582;SDS011;33679;51.218;6.786;2022-11-21T02:46:52;31.37;;;15.33;;
10582;SDS011;33679;51.218;6.786;2022-11-21T02:49:23;32.40;;;14.57;;
10582;SDS011;33679;51.218;6.786;2022-11-21T02:51:59;24.73;;;13.03;;
10582;SDS011;33679;51.218;6.786;2022-11-21T02:54:26;27.90;;;13.53;;
10582;SDS011;33679;51.218;6.786;2022-11-21T02:56:56;29.57;;;13.27;;
10582;SDS011;33679;51.218;6.786;2022-11-21T02:59:23;28.17;;;14.00;;
10582;SDS011;33679;51.218;6.786;2022-11-21T03:01:50;25.40;;;13.07;;
10582;SDS011;33679;51.218;6.786;2022-11-21T03:04:18;25.57;;;12.60;;
10582;SDS011;33679;51.218;6.786;2022-11-21T03:06:46;26.43;;;13.33;;
10582;SDS011;33679;51.218;6.786;2022-11-21T03:09:13;31.57;;;14.03;;
10582;SDS011;33679;51.218;6.786;2022-11-21T03:11:40;29.30;;;13.00;;
10582;SDS011;33679;51.218;6.786;2022-11-21T03:14:12;29.60;;;12.67;;
10582;SDS011;33679;51.218;6.786;2022-11-21T03:16:39;27.90;;;12.50;;
10582;SDS011;33679;51.218;6.786;2022-11-21T03:19:09;30.23;;;14.17;;
10582;SDS011;33679;51.218;6.786;2022-11-21T03:21:37;25.70;;;14.90;;
10582;SDS011;33679;51.218;6.786;2022-11-21T03:24:04;27.37;;;13.03;;
10582;SDS011;33679;51.218;6.786;2022-11-21T03:26:33;33.60;;;13.47;;
10582;SDS011;33679;51.218;6.786;2022-11-21T03:29:00;27.40;;;13.87;;
10582;SDS011;33679;51.218;6.786;2022-11-21T03:31:31;26.70;;;13.33;;
10582;SDS011;33679;51.218;6.786;2022-11-21T03:33:59;29.43;;;14.17;;
10582;SDS011;33679;51.218;6.786;2022-11-21T03:36:26;30.23;;;13.77;;
10582;SDS011;33679;51.218;6.786;2022-11-21T03:38:54;31.10;;;13.00;;
10582;SDS011;33679;51.218;6.786;2022-11-21T03:41:23;28.93;;;14.40;;
10582;SDS011;33679;51.218;6.786;2022-11-21T03:43:56;34.13;;;14.80;;
10582;SDS011;33679;51.218;6.786;2022-11-21T03:46:24;33.00;;;14.90;;
10582;SDS011;33679;51.218;6.786;2022-11-21T03:48:54;32.60;;;14.90;;
10582;SDS011;33679;51.218;6.786;2022-11-21T03:51:21;32.27;;;14.57;;
10582;SDS011;33679;51.218;6.786;2022-11-21T03:53:49;30.03;;;13.37;;
10582;SDS011;33679;51.218;6.786;2022-11-21T03:56:16;32.73;;;14.20;;
10582;SDS011;33679;51.218;6.786;2022-11-21T03:58:44;29.60;;;15.03;;
10582;SDS011;33679;51.218;6.786;2022-11-21T04:01:11;32.73;;;14.47;;
10582;SDS011;33679;51.218;6.786;2022-11-21T04:03:39;30.47;;;15.63;;
10582;SDS011;33679;51.218;6.786;2022-11-21T04:06:08;29.37;;;14.67;;
10582;SDS011;33679;51.218;6.786;2022-11-21T04:08:37;29.83;;;13.97;;
10582;SDS011;33679;51.218;6.786;2022-11-21T04:11:05;32.77;;;15.03;;
10582;SDS011;33679;51.218;6.786;2022-11-21T04:13:35;28.50;;;14.17;;
10582;SDS011;33679;51.218;6.786;2022-11-21T04:16:02;32.23;;;14.23;;
10582;SDS011;33679;51.218;6.786;2022-11-21T04:18:30;29.07;;;13.97;;
10582;SDS011;33679;51.218;6.786;2022-11-21T04:20:57;33.70;;;15.27;;
10582;SDS011;33679;51.218;6.786;2022-11-21T04:23:26;29.67;;;15.47;;
10582;SDS011;33679;51.218;6.786;2022-11-21T04:25:54;26.90;;;12.73;;
10582;SDS011;33679;51.218;6.786;2022-11-21T04:28:22;33.57;;;12.90;;
10582;SDS011;33679;51.218;6.786;2022-11-21T04:30:49;24.90;;;10.87;;
10582;SDS011;33679;51.218;6.786;2022-11-21T04:33:17;29.17;;;13.10;;
10582;SDS011;33679;51.218;6.786;2022-11-21T04:35:47;26.57;;;13.20;;
10582;SDS011;33679;51.218;6.786;2022-11-21T04:38:15;26.00;;;13.50;;
10582;SDS011;33679;51.218;6.786;2022-11-21T04:40:43;35.70;;;13.90;;
10582;SDS011;33679;51.218;6.786;2022-11-21T04:43:11;31.47;;;13.70;;
10582;SDS011;33679;51.218;6.786;2022-11-21T04:45:38;31.03;;;13.90;;
10582;SDS011;33679;51.218;6.786;2022-11-21T04:48:07;25.00;;;13.23;;
10582;SDS011;33679;51.218;6.786;2022-11-21T04:50:34;29.13;;;13.83;;
10582;SDS011;33679;51.218;6.786;2022-11-21T04:53:04;31.63;;;13.80;;
10582;SDS011;33679;51.218;6.786;2022-11-21T04:55:31;34.10;;;15.50;;
10582;SDS011;33679;51.218;6.786;2022-11-21T04:58:00;37.50;;;14.47;;
10582;SDS011;33679;51.218;6.786;2022-11-21T05:00:28;30.93;;;14.43;;
10582;SDS011;33679;51.218;6.786;2022-11-21T05:03:00;32.60;;;14.67;;
10582;SDS011;33679;51.218;6.786;2022-11-21T05:05:28;27.87;;;13.60;;
10582;SDS011;33679;51.218;6.786;2022-11-21T05:07:55;32.37;;;14.23;;
10582;SDS011;33679;51.218;6.786;2022-11-21T05:10:22;28.40;;;14.33;;
10582;SDS011;33679;51.218;6.786;2022-11-21T05:12:55;34.80;;;15.07;;
10582;SDS011;33679;51.218;6.786;2022-11-21T05:15:42;33.27;;;14.53;;
10582;SDS011;33679;51.218;6.786;2022-11-21T05:18:11;35.40;;;15.33;;
10582;SDS011;33679;51.218;6.786;2022-11-21T05:20:39;35.70;;;17.00;;
10582;SDS011;33679;51.218;6.786;2022-11-21T05:23:07;32.80;;;15.57;;
10582;SDS011;33679;51.218;6.786;2022-11-21T05:25:35;36.27;;;17.10;;
10582;SDS011;33679;51.218;6.786;2022-11-21T05:28:02;32.83;;;15.43;;
10582;SDS011;33679;51.218;6.786;2022-11-21T05:30:30;35.43;;;15.80;;
10582;SDS011;33679;51.218;6.786;2022-11-21T05:32:59;34.17;;;14.90;;
10582;SDS011;33679;51.218;6.786;2022-11-21T05:35:26;34.70;;;14.97;;
10582;SDS011;33679;51.218;6.786;2022-11-21T05:37:55;27.33;;;14.03;;
10582;SDS011;33679;51.218;6.786;2022-11-21T05:40:23;33.33;;;13.80;;
10582;SDS011;33679;51.218;6.786;2022-11-21T05:42:50;34.33;;;15.20;;
10582;SDS011;33679;51.218;6.786;2022-11-21T05:45:50;45.30;;;17.37;;
10582;SDS011;33679;51.218;6.786;2022-11-21T05:48:20;36.37;;;16.00;;
10582;SDS011;33679;51.218;6.786;2022-11-21T05:50:51;38.37;;;14.80;;
10582;SDS011;33679;51.218;6.786;2022-11-21T05:53:18;33.30;;;15.37;;
10582;SDS011;33679;51.218;6.786;2022-11-21T05:55:48;33.80;;;14.20;;
10582;SDS011;33679;51.218;6.786;2022-11-21T05:58:17;35.50;;;16.23;;
10582;SDS011;33679;51.218;6.786;2022-11-21T06:00:44;41.17;;;17.70;;
10582;SDS011;33679;51.218;6.786;2022-11-21T06:03:12;32.73;;;14.03;;
10582;SDS011;33679;51.218;6.786;2022-11-21T06:06:00;40.00;;;14.93;;
10582;SDS011;33679;51.218;6.786;2022-11-21T06:08:30;33.30;;;15.33;;
10582;SDS011;33679;51.218;6.786;2022-11-21T06:10:59;35.60;;;16.30;;
10582;SDS011;33679;51.218;6.786;2022-11-21T06:13:26;43.50;;;16.37;;
10582;SDS011;33679;51.218;6.786;2022-11-21T06:16:01;36.63;;;15.20;;
10582;SDS011;33679;51.218;6.786;2022-11-21T06:18:30;34.20;;;15.97;;
10582;SDS011;33679;51.218;6.786;2022-11-21T06:21:02;33.37;;;15.27;;
10582;SDS011;33679;51.218;6.786;2022-11-21T06:23:32;31.03;;;13.77;;
10582;SDS011;33679;51.218;6.786;2022-11-21T06:26:03;31.83;;;15.10;;
10582;SDS011;33679;51.218;6.786;2022-11-21T06:28:33;33.10;;;13.87;;
10582;SDS011;33679;51.218;6.786;2022-11-21T06:31:02;37.33;;;14.37;;
10582;SDS011;33679;51.218;6.786;2022-11-21T06:33:32;37.50;;;15.40;;
10582;SDS011;33679;51.218;6.786;2022-11-21T06:36:02;29.80;;;14.50;;
10582;SDS011;33679;51.218;6.786;2022-11-21T06:38:29;34.27;;;15.43;;
10582;SDS011;33679;51.218;6.786;2022-11-21T06:40:57;34.33;;;16.47;;
10582;SDS011;33679;51.218;6.786;2022-11-21T06:43:27;35.53;;;16.60;;
10582;SDS011;33679;51.218;6.786;2022-11-21T06:45:54;33.97;;;13.80;;
10582;SDS011;33679;51.218;6.786;2022-11-21T06:48:24;36.17;;;13.97;;
10582;SDS011;33679;51.218;6.786;2022-11-21T06:50:52;28.83;;;14.37;;
10582;SDS011;33679;51.218;6.786;2022-11-21T06:53:22;31.33;;;14.43;;
10582;SDS011;33679;51.218;6.786;2022-11-21T06:55:49;32.93;;;14.97;;
10582;SDS011;33679;51.218;6.786;2022-11-21T06:58:16;33.30;;;13.93;;
10582;SDS011;33679;51.218;6.786;2022-11-21T07:00:44;31.20;;;13.97;;
10582;SDS011;33679;51.218;6.786;2022-11-21T07:03:12;31.23;;;13.93;;
10582;SDS011;33679;51.218;6.786;2022-11-21T07:05:40;25.50;;;12.63;;
10582;SDS011;33679;51.218;6.786;2022-11-21T07:08:10;26.93;;;13.27;;
10582;SDS011;33679;51.218;6.786;2022-11-21T07:10:39;28.50;;;13.10;;
10582;SDS011;33679;51.218;6.786;2022-11-21T07:13:10;30.17;;;12.50;;
10582;SDS011;33679;51.218;6.786;2022-11-21T07:15:47;32.97;;;14.37;;
10582;SDS011;33679;51.218;6.786;2022-11-21T07:18:16;28.13;;;12.77;;
10582;SDS011;33679;51.218;6.786;2022-11-21T07:20:43;29.67;;;14.10;;
10582;SDS011;33679;51.218;6.786;2022-11-21T07:23:11;29.33;;;13.67;;
10582;SDS011;33679;51.218;6.786;2022-11-21T07:25:40;26.63;;;13.67;;
10582;SDS011;33679;51.218;6.786;2022-11-21T07:28:09;28.10;;;12.67;;
10582;SDS011;33679;51.218;6.786;2022-11-21T07:30:39;32.40;;;15.07;;
10582;SDS011;33679;51.218;6.786;2022-11-21T07:33:07;28.07;;;14.10;;
10582;SDS011;33679;51.218;6.786;2022-11-21T07:35:34;33.20;;;13.87;;
10582;SDS011;33679;51.218;6.786;2022-11-21T07:38:02;28.23;;;13.33;;
10582;SDS011;33679;51.218;6.786;2022-11-21T07:40:30;29.70;;;12.23;;
10582;SDS011;33679;51.218;6.786;2022-11-21T07:43:00;28.57;;;14.00;;
10582;SDS011;33679;51.218;6.786;2022-11-21T07:45:28;28.73;;;12.93;;
10582;SDS011;33679;51.218;6.786;2022-11-21T07:47:56;29.07;;;11.80;;
10582;SDS011;33679;51.218;6.786;2022-11-21T07:50:24;22.43;;;11.10;;
10582;SDS011;33679;51.218;6.786;2022-11-21T07:52:55;30.10;;;13.90;;
10582;SDS011;33679;51.218;6.786;2022-11-21T07:55:23;26.57;;;12.23;;
10582;SDS011;33679;51.218;6.786;2022-11-21T07:57:56;24.33;;;11.33;;
10582;SDS011;33679;51.218;6.786;2022-11-21T08:00:27;28.13;;;12.60;;
10582;SDS011;33679;51.218;6.786;2022-11-21T08:02:55;17.40;;;9.07;;
10582;SDS011;33679;51.218;6.786;2022-11-21T08:05:23;19.37;;;10.07;;
10582;SDS011;33679;51.218;6.786;2022-11-21T08:07:53;17.77;;;8.60;;
10582;SDS011;33679;51.218;6.786;2022-11-21T08:10:20;22.00;;;9.40;;
10582;SDS011;33679;51.218;6.786;2022-11-21T08:12:47;16.63;;;7.90;;
10582;SDS011;33679;51.218;6.786;2022-11-21T08:15:21;11.60;;;6.53;;
10582;SDS011;33679;51.218;6.786;2022-11-21T08:17:49;15.73;;;7.13;;
10582;SDS011;33679;51.218;6.786;2022-11-21T08:20:17;11.67;;;6.90;;
10582;SDS011;33679;51.218;6.786;2022-11-21T08:22:44;11.57;;;7.47;;
10582;SDS011;33679;51.218;6.786;2022-11-21T08:25:11;16.00;;;10.00;;
10582;SDS011;33679;51.218;6.786;2022-11-21T08:27:39;10.00;;;6.90;;
10582;SDS011;33679;51.218;6.786;2022-11-21T08:30:08;12.90;;;7.30;;
10582;SDS011;33679;51.218;6.786;2022-11-21T08:32:39;9.17;;;6.20;;
10582;SDS011;33679;51.218;6.786;2022-11-21T08:35:08;7.57;;;5.93;;
10582;SDS011;33679;51.218;6.786;2022-11-21T08:37:35;12.60;;;6.10;;
10582;SDS011;33679;51.218;6.786;2022-11-21T08:40:03;18.90;;;6.00;;
10582;SDS011;33679;51.218;6.786;2022-11-21T08:42:31;16.17;;;6.43;;
10582;SDS011;33679;51.218;6.786;2022-11-21T08:44:58;11.33;;;5.10;;
10582;SDS011;33679;51.218;6.786;2022-11-21T08:47:26;9.50;;;4.80;;
10582;SDS011;33679;51.218;6.786;2022-11-21T08:49:56;10.40;;;5.70;;
10582;SDS011;33679;51.218;6.786;2022-11-21T08:52:25;8.67;;;5.27;;
10582;SDS011;33679;51.218;6.786;2022-11-21T08:54:54;11.93;;;7.07;;
10582;SDS011;33679;51.218;6.786;2022-11-21T08:57:22;7.27;;;5.40;;
10582;SDS011;33679;51.218;6.786;2022-11-21T08:59:49;9.40;;;5.40;;
10582;SDS011;33679;51.218;6.786;2022-11-21T09:02:17;7.47;;;4.80;;
10582;SDS011;33679;51.218;6.786;2022-11-21T09:04:46;8.20;;;4.57;;
10582;SDS011;33679;51.218;6.786;2022-11-21T09:07:14;6.77;;;4.27;;
10582;SDS011;33679;51.218;6.786;2022-11-21T09:09:45;13.20;;;5.10;;
10582;SDS011;33679;51.218;6.786;2022-11-21T09:12:12;8.53;;;4.77;;
10582;SDS011;33679;51.218;6.786;2022-11-21T09:14:40;7.67;;;4.27;;
10582;SDS011;33679;51.218;6.786;2022-11-21T09:17:24;8.70;;;5.50;;
10582;SDS011;33679;51.218;6.786;2022-11-21T09:20:10;4.67;;;3.83;;
10582;SDS011;33679;51.218;6.786;2022-11-21T09:22:38;8.63;;;4.47;;
10582;SDS011;33679;51.218;6.786;2022-11-21T09:25:08;6.83;;;3.67;;
10582;SDS011;33679;51.218;6.786;2022-11-21T09:27:35;6.53;;;4.23;;
10582;SDS011;33679;51.218;6.786;2022-11-21T09:30:02;7.10;;;4.93;;
10582;SDS011;33679;51.218;6.786;2022-11-21T09:32:33;9.00;;;4.20;;
10582;SDS011;33679;51.218;6.786;2022-11-21T09:35:04;7.83;;;4.60;;
10582;SDS011;33679;51.218;6.786;2022-11-21T09:37:34;7.63;;;4.80;;
10582;SDS011;33679;51.218;6.786;2022-11-21T09:40:02;6.20;;;4.13;;
10582;SDS011;33679;51.218;6.786;2022-11-21T09:45:35;5.10;;;4.17;;
10582;SDS011;33679;51.218;6.786;2022-11-21T09:48:10;12.57;;;4.97;;
10582;SDS011;33679;51.218;6.786;2022-11-21T09:50:41;6.77;;;4.70;;
10582;SDS011;33679;51.218;6.786;2022-11-21T09:53:13;7.03;;;4.23;;
10582;SDS011;33679;51.218;6.786;2022-11-21T09:55:45;5.50;;;4.30;;
10582;SDS011;33679;51.218;6.786;2022-11-21T09:58:23;7.43;;;4.50;;
10582;SDS011;33679;51.218;6.786;2022-11-21T10:00:55;9.93;;;5.00;;
10582;SDS011;33679;51.218;6.786;2022-11-21T10:03:23;10.70;;;4.53;;
10582;SDS011;33679;51.218;6.786;2022-11-21T10:05:52;8.83;;;4.63;;
10582;SDS011;33679;51.218;6.786;2022-11-21T10:08:26;10.00;;;5.10;;
10582;SDS011;33679;51.218;6.786;2022-11-21T10:10:59;11.87;;;5.17;;
10582;SDS011;33679;51.218;6.786;2022-11-21T10:13:43;9.70;;;4.60;;
10582;SDS011;33679;51.218;6.786;2022-11-21T10:16:22;9.83;;;4.13;;
10582;SDS011;33679;51.218;6.786;2022-11-21T10:19:21;11.13;;;4.43;;
10582;SDS011;33679;51.218;6.786;2022-11-21T10:22:16;12.70;;;4.30;;
10582;SDS011;33679;51.218;6.786;2022-11-21T10:25:10;9.40;;;5.00;;
10582;SDS011;33679;51.218;6.786;2022-11-21T10:27:45;6.83;;;3.67;;
10582;SDS011;33679;51.218;6.786;2022-11-21T10:30:18;6.70;;;4.73;;
10582;SDS011;33679;51.218;6.786;2022-11-21T10:32:46;8.80;;;3.77;;
10582;SDS011;33679;51.218;6.786;2022-11-21T10:35:16;9.10;;;3.97;;
10582;SDS011;33679;51.218;6.786;2022-11-21T10:37:48;6.60;;;3.13;;
10582;SDS011;33679;51.218;6.786;2022-11-21T10:40:31;9.53;;;3.90;;
10582;SDS011;33679;51.218;6.786;2022-11-21T10:43:05;7.87;;;3.63;;
10582;SDS011;33679;51.218;6.786;2022-11-21T10:45:59;6.63;;;3.77;;
10582;SDS011;33679;51.218;6.786;2022-11-21T10:48:26;10.43;;;4.43;;
10582;SDS011;33679;51.218;6.786;2022-11-21T10:51:06;5.37;;;4.13;;
10582;SDS011;33679;51.218;6.786;2022-11-21T10:53:54;8.30;;;3.73;;
10582;SDS011;33679;51.218;6.786;2022-11-21T10:57:16;6.60;;;3.20;;
10582;SDS011;33679;51.218;6.786;2022-11-21T10:59:54;7.77;;;3.20;;
10582;SDS011;33679;51.218;6.786;2022-11-21T11:02:27;7.27;;;4.10;;
10582;SDS011;33679;51.218;6.786;2022-11-21T11:07:59;8.60;;;3.90;;
10582;SDS011;33679;51.218;6.786;2022-11-21T11:10:29;7.20;;;3.87;;
10582;SDS011;33679;51.218;6.786;2022-11-21T11:12:58;7.93;;;3.27;;
10582;SDS011;33679;51.218;6.786;2022-11-21T11:15:53;6.30;;;3.87;;
10582;SDS011;33679;51.218;6.786;2022-11-21T11:18:28;7.63;;;4.53;;
10582;SDS011;33679;51.218;6.786;2022-11-21T11:21:08;8.00;;;4.30;;
10582;SDS011;33679;51.218;6.786;2022-11-21T11:23:40;7.67;;;4.27;;
10582;SDS011;33679;51.218;6.786;2022-11-21T11:26:17;9.03;;;4.17;;
10582;SDS011;33679;51.218;6.786;2022-11-21T11:28:47;5.40;;;2.90;;
10582;SDS011;33679;51.218;6.786;2022-11-21T11:31:17;5.53;;;3.60;;
10582;SDS011;33679;51.218;6.786;2022-11-21T11:33:52;7.60;;;3.10;;
10582;SDS011;33679;51.218;6.786;2022-11-21T11:48:33;6.43;;;3.53;;
10582;SDS011;33679;51.218;6.786;2022-11-21T11:51:08;9.53;;;4.20;;
10582;SDS011;33679;51.218;6.786;2022-11-21T11:53:47;6.50;;;3.73;;
10582;SDS011;33679;51.218;6.786;2022-11-21T11:56:19;5.40;;;3.87;;
10582;SDS011;33679;51.218;6.786;2022-11-21T11:58:52;6.50;;;3.77;;
10582;SDS011;33679;51.218;6.786;2022-11-21T12:01:24;6.37;;;3.67;;
10582;SDS011;33679;51.218;6.786;2022-11-21T12:03:58;9.50;;;3.73;;
10582;SDS011;33679;51.218;6.786;2022-11-21T12:06:30;7.97;;;3.83;;
10582;SDS011;33679;51.218;6.786;2022-11-21T12:09:02;6.70;;;3.60;;
10582;SDS011;33679;51.218;6.786;2022-11-21T12:11:36;8.90;;;4.20;;
10582;SDS011;33679;51.218;6.786;2022-11-21T12:14:50;9.10;;;4.00;;
10582;SDS011;33679;51.218;6.786;2022-11-21T12:17:49;9.23;;;4.87;;
10582;SDS011;33679;51.218;6.786;2022-11-21T12:20:41;8.50;;;4.30;;
10582;SDS011;33679;51.218;6.786;2022-11-21T12:23:19;9.47;;;3.40;;
10582;SDS011;33679;51.218;6.786;2022-11-21T12:25:52;7.80;;;3.60;;
10582;SDS011;33679;51.218;6.786;2022-11-21T12:28:32;6.50;;;3.10;;
10582;SDS011;33679;51.218;6.786;2022-11-21T12:31:10;5.23;;;3.00;;
10582;SDS011;33679;51.218;6.786;2022-11-21T12:33:48;7.10;;;3.73;;
10582;SDS011;33679;51.218;6.786;2022-11-21T12:36:30;6.37;;;3.60;;
10582;SDS011;33679;51.218;6.786;2022-11-21T12:42:07;6.67;;;3.07;;
10582;SDS011;33679;51.218;6.786;2022-11-21T12:45:00;3.40;;;2.20;;
10582;SDS011;33679;51.218;6.786;2022-11-21T12:47:58;6.47;;;3.00;;
10582;SDS011;33679;51.218;6.786;2022-11-21T12:51:22;4.27;;;2.50;;
10582;SDS011;33679;51.218;6.786;2022-11-21T12:54:28;2.97;;;2.07;;
10582;SDS011;33679;51.218;6.786;2022-11-21T12:57:17;5.43;;;1.97;;
10582;SDS011;33679;51.218;6.786;2022-11-21T12:59:48;5.30;;;2.17;;
10582;SDS011;33679;51.218;6.786;2022-11-21T13:02:25;2.90;;;1.80;;
10582;SDS011;33679;51.218;6.786;2022-11-21T13:04:57;3.50;;;1.33;;
10582;SDS011;33679;51.218;6.786;2022-11-21T13:07:28;3.33;;;1.50;;
10582;SDS011;33679;51.218;6.786;2022-11-21T13:09:58;3.67;;;1.50;;
10582;SDS011;33679;51.218;6.786;2022-11-21T13:12:34;4.50;;;1.47;;
10582;SDS011;33679;51.218;6.786;2022-11-21T13:15:12;2.27;;;1.50;;
10582;SDS011;33679;51.218;6.786;2022-11-21T13:17:46;4.50;;;1.63;;
10582;SDS011;33679;51.218;6.786;2022-11-21T13:20:22;7.23;;;1.73;;
10582;SDS011;33679;51.218;6.786;2022-11-21T13:22:58;4.03;;;1.70;;
10582;SDS011;33679;51.218;6.786;2022-11-21T13:25:36;3.00;;;1.87;;
10582;SDS011;33679;51.218;6.786;2022-11-21T13:28:31;4.50;;;1.90;;
10582;SDS011;33679;51.218;6.786;2022-11-21T13:31:00;3.57;;;1.77;;
10582;SDS011;33679;51.218;6.786;2022-11-21T13:36:38;3.10;;;1.70;;
10582;SDS011;33679;51.218;6.786;2022-11-21T13:42:02;3.47;;;1.80;;
10582;SDS011;33679;51.218;6.786;2022-11-21T13:44:55;1.97;;;0.93;;
10582;SDS011;33679;51.218;6.786;2022-11-21T13:50:30;4.20;;;1.73;;
10582;SDS011;33679;51.218;6.786;2022-11-21T13:53:23;2.00;;;1.23;;
10582;SDS011;33679;51.218;6.786;2022-11-21T13:56:03;3.23;;;1.57;;
10582;SDS011;33679;51.218;6.786;2022-11-21T13:58:55;4.60;;;1.47;;
10582;SDS011;33679;51.218;6.786;2022-11-21T14:01:43;2.13;;;1.37;;
10582;SDS011;33679;51.218;6.786;2022-11-21T14:07:22;3.70;;;1.53;;
10582;SDS011;33679;51.218;6.786;2022-11-21T14:09:54;4.17;;;1.70;;
10582;SDS011;33679;51.218;6.786;2022-11-21T14:12:23;4.70;;;2.10;;
10582;SDS011;33679;51.218;6.786;2022-11-21T14:15:06;4.60;;;2.30;;
10582;SDS011;33679;51.218;6.786;2022-11-21T14:17:44;3.47;;;1.40;;
10582;SDS011;33679;51.218;6.786;2022-11-21T14:20:18;3.67;;;1.53;;
10582;SDS011;33679;51.218;6.786;2022-11-21T14:22:52;4.20;;;1.77;;
10582;SDS011;33679;51.218;6.786;2022-11-21T14:25:23;1.60;;;1.50;;
10582;SDS011;33679;51.218;6.786;2022-11-21T14:27:56;4.33;;;2.00;;
10582;SDS011;33679;51.218;6.786;2022-11-21T14:30:26;3.17;;;1.20;;
10582;SDS011;33679;51.218;6.786;2022-11-21T14:32:56;1.77;;;1.13;;
10582;SDS011;33679;51.218;6.786;2022-11-21T14:35:47;4.93;;;1.20;;
10582;SDS011;33679;51.218;6.786;2022-11-21T14:38:53;4.73;;;1.73;;
10582;SDS011;33679;51.218;6.786;2022-11-21T14:41:22;4.30;;;1.80;;
10582;SDS011;33679;51.218;6.786;2022-11-21T14:44:02;2.83;;;1.70;;
10582;SDS011;33679;51.218;6.786;2022-11-21T14:46:42;6.53;;;1.50;;
10582;SDS011;33679;51.218;6.786;2022-11-21T14:52:07;1.90;;;1.50;;
10582;SDS011;33679;51.218;6.786;2022-11-21T14:54:56;4.50;;;1.00;;
10582;SDS011;33679;51.218;6.786;2022-11-21T14:57:25;3.80;;;1.27;;
10582;SDS011;33679;51.218;6.786;2022-11-21T14:59:54;1.63;;;1.43;;
10582;SDS011;33679;51.218;6.786;2022-11-21T15:02:23;4.43;;;1.57;;
10582;SDS011;33679;51.218;6.786;2022-11-21T15:04:53;3.50;;;1.40;;
10582;SDS011;33679;51.218;6.786;2022-11-21T15:07:26;1.53;;;1.20;;
10582;SDS011;33679;51.218;6.786;2022-11-21T15:09:58;5.93;;;1.67;;
10582;SDS011;33679;51.218;6.786;2022-11-21T15:12:29;2.40;;;1.50;;
10582;SDS011;33679;51.218;6.786;2022-11-21T15:15:03;2.90;;;1.43;;
10582;SDS011;33679;51.218;6.786;2022-11-21T15:17:38;6.53;;;1.20;;
10582;SDS011;33679;51.218;6.786;2022-11-21T15:20:15;2.90;;;1.30;;
10582;SDS011;33679;51.218;6.786;2022-11-21T15:22:45;3.90;;;1.70;;
10582;SDS011;33679;51.218;6.786;2022-11-21T15:25:16;3.00;;;1.20;;
10582;SDS011;33679;51.218;6.786;2022-11-21T15:27:46;4.03;;;1.50;;
10582;SDS011;33679;51.218;6.786;2022-11-21T15:30:24;2.70;;;1.50;;
10582;SDS011;33679;51.218;6.786;2022-11-21T15:33:02;5.47;;;1.70;;
10582;SDS011;33679;51.218;6.786;2022-11-21T15:35:40;5.17;;;3.40;;
10582;SDS011;33679;51.218;6.786;2022-11-21T15:38:13;3.37;;;1.97;;
10582;SDS011;33679;51.218;6.786;2022-11-21T15:40:59;4.53;;;1.70;;